createdAt,value
2019-03-17T00:03:00.508Z,4.72
2019-03-17T00:07:05.102Z,5.40
2019-03-17T00:11:09.764Z,4.40
2019-03-17T00:15:14.832Z,4.67
2019-03-17T00:19:19.858Z,4.40
2019-03-17T00:23:24.667Z,4.03
2019-03-17T00:27:29.410Z,4.22
2019-03-17T00:31:34.495Z,4.42
2019-03-17T00:35:39.153Z,4.37
2019-03-17T00:39:43.693Z,4.05
2019-03-17T00:43:48.643Z,3.92
2019-03-17T00:47:53.679Z,3.60
2019-03-17T00:51:58.519Z,5.47
2019-03-17T00:56:03.083Z,4.92
2019-03-17T01:00:09.456Z,5.55
2019-03-17T01:04:14.057Z,3.80
2019-03-17T01:08:19.306Z,4.15
2019-03-17T01:12:24.027Z,4.60
2019-03-17T01:16:29.068Z,3.87
2019-03-17T01:20:33.871Z,4.87
2019-03-17T01:24:38.429Z,3.55
2019-03-17T01:28:43.096Z,4.03
2019-03-17T01:32:47.673Z,4.60
2019-03-17T01:36:52.205Z,3.67
2019-03-17T01:40:56.785Z,3.87
2019-03-17T01:45:01.492Z,4.30
2019-03-17T01:49:06.283Z,3.77
2019-03-17T01:53:10.917Z,4.37
2019-03-17T01:57:15.798Z,4.20
2019-03-17T02:01:20.695Z,4.00
2019-03-17T02:05:25.279Z,4.47
2019-03-17T02:09:32.907Z,4.20
2019-03-17T02:13:37.566Z,3.30
2019-03-17T02:17:42.174Z,3.50
2019-03-17T02:21:47.125Z,3.42
2019-03-17T02:25:52.138Z,3.42
2019-03-17T02:29:57.772Z,3.42
2019-03-17T02:34:02.356Z,3.30
2019-03-17T02:38:06.916Z,3.35
2019-03-17T02:42:11.761Z,3.20
2019-03-17T02:46:16.340Z,3.20
2019-03-17T02:50:20.934Z,3.00
2019-03-17T02:54:25.929Z,2.90
2019-03-17T02:58:30.479Z,2.58
2019-03-17T03:02:35.033Z,2.50
2019-03-17T03:06:39.602Z,2.65
2019-03-17T03:10:44.549Z,2.60
2019-03-17T03:14:49.835Z,2.58
2019-03-17T03:18:54.776Z,2.50
2019-03-17T03:22:59.629Z,2.17
2019-03-17T03:27:04.242Z,2.30
2019-03-17T03:31:08.822Z,2.50
2019-03-17T03:35:15.082Z,1.98
2019-03-17T03:39:20.217Z,2.80
2019-03-17T03:43:25.257Z,2.45
2019-03-17T03:47:30.822Z,2.10
2019-03-17T03:51:36.000Z,2.20
2019-03-17T03:55:42.430Z,2.70
2019-03-17T03:59:46.938Z,2.72
2019-03-17T04:03:51.622Z,2.40
2019-03-17T04:07:57.495Z,2.50
2019-03-17T04:12:03.059Z,2.72
2019-03-17T04:16:08.916Z,2.80
2019-03-17T04:20:13.991Z,2.50
2019-03-17T04:24:19.689Z,2.60
2019-03-17T04:28:24.267Z,2.87
2019-03-17T04:32:29.225Z,2.70
2019-03-17T04:36:40.052Z,2.62
2019-03-17T04:40:41.624Z,2.60
2019-03-17T04:44:48.243Z,2.83
2019-03-17T04:48:52.839Z,2.90
2019-03-17T04:52:57.813Z,2.40
2019-03-17T04:57:02.639Z,2.67
2019-03-17T05:01:08.898Z,2.90
2019-03-17T05:05:14.065Z,2.55
2019-03-17T05:09:20.187Z,2.37
2019-03-17T05:13:24.832Z,2.35
2019-03-17T05:17:29.474Z,3.00
2019-03-17T05:21:34.174Z,2.60
2019-03-17T05:25:38.723Z,2.50
2019-03-17T05:29:43.641Z,2.90
2019-03-17T05:33:48.605Z,2.95
2019-03-17T05:37:53.820Z,2.80
2019-03-17T05:41:58.392Z,2.47
2019-03-17T05:46:02.968Z,2.87
2019-03-17T05:50:08.204Z,2.33
2019-03-17T05:54:13.432Z,2.22
2019-03-17T05:58:18.363Z,2.20
2019-03-17T06:02:23.049Z,2.90
2019-03-17T06:06:27.657Z,2.22
2019-03-17T06:10:32.584Z,1.80
2019-03-17T06:14:37.736Z,2.70
2019-03-17T06:18:42.297Z,2.00
2019-03-17T06:22:47.256Z,1.67
2019-03-17T06:26:52.551Z,2.17
2019-03-17T06:30:57.699Z,1.90
2019-03-17T06:35:02.427Z,1.67
2019-03-17T06:39:07.814Z,1.80
2019-03-17T06:43:12.829Z,2.00
2019-03-17T06:47:17.439Z,2.22
2019-03-17T06:51:22.439Z,2.25
2019-03-17T06:55:27.012Z,2.70
2019-03-17T06:59:32.580Z,2.80
2019-03-17T07:03:37.561Z,1.70
2019-03-17T07:07:44.395Z,1.90
2019-03-17T07:11:49.218Z,1.70
2019-03-17T07:15:55.715Z,2.60
2019-03-17T07:20:00.516Z,1.77
2019-03-17T07:24:05.263Z,2.08
2019-03-17T07:28:10.098Z,1.85
2019-03-17T07:32:14.834Z,1.75
2019-03-17T07:36:19.434Z,2.22
2019-03-17T07:40:23.951Z,2.27
2019-03-17T07:44:28.795Z,2.10
2019-03-17T07:48:33.407Z,1.98
2019-03-17T07:52:38.464Z,2.30
2019-03-17T07:56:43.584Z,2.17
2019-03-17T08:00:48.140Z,1.90
2019-03-17T08:04:53.177Z,1.75
2019-03-17T08:08:57.752Z,1.95
2019-03-17T08:13:02.398Z,2.10
2019-03-17T08:17:07.603Z,1.67
2019-03-17T08:21:12.584Z,1.80
2019-03-17T08:25:17.373Z,1.57
2019-03-17T08:29:22.565Z,1.92
2019-03-17T08:33:27.678Z,1.50
2019-03-17T08:37:33.129Z,2.20
2019-03-17T08:41:37.887Z,2.15
2019-03-17T08:45:43.021Z,2.10
2019-03-17T08:49:47.989Z,1.90
2019-03-17T08:53:52.582Z,1.80
2019-03-17T08:57:57.611Z,2.02
2019-03-17T09:02:02.479Z,2.47
2019-03-17T09:06:07.044Z,2.00
2019-03-17T09:10:12.180Z,2.15
2019-03-17T09:14:17.158Z,1.90
2019-03-17T09:18:21.715Z,2.22
2019-03-17T09:22:26.369Z,1.85
2019-03-17T09:26:30.982Z,2.00
2019-03-17T09:30:35.888Z,1.82
2019-03-17T09:34:40.478Z,1.67
2019-03-17T09:38:47.544Z,2.10
2019-03-17T09:42:52.095Z,2.15
2019-03-17T09:46:57.093Z,1.90
2019-03-17T09:51:02.555Z,2.00
2019-03-17T09:55:07.810Z,2.20
2019-03-17T09:59:12.804Z,2.08
2019-03-17T10:03:17.598Z,1.67
2019-03-17T10:07:22.178Z,1.75
2019-03-17T10:11:27.582Z,1.67
2019-03-17T10:15:33.254Z,1.90
2019-03-17T10:19:38.706Z,1.85
2019-03-17T10:23:43.616Z,1.82
2019-03-17T10:27:50.197Z,2.00
2019-03-17T10:31:54.914Z,1.60
2019-03-17T10:35:59.541Z,2.25
2019-03-17T10:40:05.017Z,2.80
2019-03-17T10:44:10.168Z,2.00
2019-03-17T10:48:15.063Z,2.02
2019-03-17T10:52:19.955Z,1.80
2019-03-17T10:56:24.540Z,1.57
2019-03-17T11:00:29.415Z,2.10
2019-03-17T11:04:33.971Z,1.80
2019-03-17T11:08:40.344Z,1.52
2019-03-17T11:12:45.392Z,1.98
2019-03-17T11:16:50.460Z,1.70
2019-03-17T11:20:55.265Z,1.90
2019-03-17T11:25:00.121Z,2.12
2019-03-17T11:29:05.357Z,1.60
2019-03-17T11:33:09.985Z,1.90
2019-03-17T11:37:16.575Z,1.98
2019-03-17T11:41:21.552Z,1.90
2019-03-17T11:45:26.591Z,2.30
2019-03-17T11:49:32.293Z,1.60
2019-03-17T11:53:39.239Z,1.87
2019-03-17T11:57:44.399Z,2.10
2019-03-17T12:01:49.303Z,1.70
2019-03-17T12:05:53.950Z,2.00
2019-03-17T12:09:59.192Z,2.10
2019-03-17T12:14:03.919Z,1.70
2019-03-17T12:18:08.846Z,2.00
2019-03-17T12:22:14.305Z,1.98
2019-03-17T12:26:18.908Z,1.75
2019-03-17T12:30:24.792Z,1.47
2019-03-17T12:34:29.910Z,2.00
2019-03-17T12:38:34.718Z,1.50
2019-03-17T12:42:39.590Z,1.50
2019-03-17T12:46:46.468Z,1.90
2019-03-17T12:50:55.414Z,1.70
2019-03-17T12:55:00.354Z,1.87
2019-03-17T12:59:05.608Z,2.12
2019-03-17T13:03:10.876Z,1.98
2019-03-17T13:07:15.691Z,1.05
2019-03-17T13:11:20.789Z,0.60
2019-03-17T13:15:25.487Z,0.80
2019-03-17T13:19:31.979Z,0.80
2019-03-17T13:23:36.962Z,0.80
2019-03-17T13:27:42.387Z,0.90
2019-03-17T13:31:47.120Z,1.00
2019-03-17T13:35:52.371Z,0.90
2019-03-17T13:39:58.761Z,0.70
2019-03-17T13:44:03.580Z,0.88
2019-03-17T13:48:09.201Z,0.90
2019-03-17T13:52:15.285Z,0.50
2019-03-17T13:56:21.489Z,0.70
2019-03-17T14:00:26.544Z,0.60
2019-03-17T14:04:32.094Z,0.80
2019-03-17T14:08:37.139Z,0.68
2019-03-17T14:12:42.373Z,1.42
2019-03-17T14:16:47.672Z,0.80
2019-03-17T14:20:52.557Z,0.70
2019-03-17T14:24:58.236Z,0.80
2019-03-17T14:29:03.414Z,1.15
2019-03-17T14:33:08.244Z,1.20
2019-03-17T14:37:13.362Z,1.37
2019-03-17T14:41:21.076Z,4.42
2019-03-17T14:45:29.148Z,2.02
2019-03-17T14:49:35.579Z,1.70
2019-03-17T14:53:40.811Z,1.32
2019-03-17T14:57:45.730Z,1.55
2019-03-17T15:01:50.407Z,0.98
2019-03-17T15:05:55.141Z,0.90
2019-03-17T15:10:00.344Z,0.98
2019-03-17T15:14:06.166Z,1.50
2019-03-17T15:18:17.432Z,1.20
2019-03-17T15:22:22.115Z,1.07
2019-03-17T15:26:27.587Z,1.52
2019-03-17T15:30:32.846Z,1.20
2019-03-17T15:34:40.247Z,1.40
2019-03-17T15:38:45.877Z,1.30
2019-03-17T15:42:50.753Z,1.35
2019-03-17T15:46:55.294Z,1.40
2019-03-17T15:51:02.844Z,1.50
2019-03-17T15:55:09.279Z,1.50
2019-03-17T15:59:14.320Z,1.95
2019-03-17T16:03:19.660Z,2.15
2019-03-17T16:07:24.603Z,2.17
2019-03-17T16:11:31.127Z,1.95
2019-03-17T16:15:40.149Z,2.12
2019-03-17T16:19:44.031Z,1.90
2019-03-17T16:23:49.205Z,2.20
2019-03-17T16:27:54.258Z,1.90
2019-03-17T16:31:59.737Z,1.90
2019-03-17T16:36:06.181Z,2.20
2019-03-17T16:40:12.991Z,1.92
2019-03-17T16:44:18.515Z,2.25
2019-03-17T16:48:26.103Z,3.22
2019-03-17T16:52:33.745Z,2.20
2019-03-17T16:56:38.310Z,2.40
2019-03-17T17:00:43.015Z,2.20
2019-03-17T17:05:07.965Z,2.50
2019-03-17T17:09:14.206Z,1.90
2019-03-17T17:13:20.275Z,2.40
2019-03-17T17:17:25.197Z,1.90
2019-03-17T17:21:30.297Z,1.50
2019-03-17T17:25:35.471Z,1.20
2019-03-17T17:29:40.664Z,2.05
2019-03-17T17:33:46.905Z,1.90
2019-03-17T17:37:52.196Z,2.75
2019-03-17T17:42:08.365Z,1.30
2019-03-17T17:46:03.710Z,1.12
2019-03-17T17:50:10.158Z,1.35
2019-03-17T17:54:14.832Z,0.80
2019-03-17T17:58:19.971Z,0.75
2019-03-17T18:02:25.011Z,0.70
2019-03-17T18:06:30.627Z,0.75
2019-03-17T18:10:36.346Z,0.90
2019-03-17T18:14:41.924Z,0.82
2019-03-17T18:18:58.522Z,2.37
2019-03-17T18:23:17.694Z,0.75
2019-03-17T18:27:27.738Z,0.98
2019-03-17T18:31:32.991Z,0.90
2019-03-17T18:35:38.125Z,0.98
2019-03-17T18:39:43.928Z,0.90
2019-03-17T18:43:54.186Z,0.72
2019-03-17T18:48:02.208Z,0.60
2019-03-17T18:52:06.883Z,0.78
2019-03-17T18:56:17.668Z,1.12
2019-03-17T19:00:24.538Z,0.80
2019-03-17T19:04:30.016Z,0.72
2019-03-17T19:08:38.590Z,0.78
2019-03-17T19:12:45.714Z,1.77
2019-03-17T19:16:51.269Z,0.90
2019-03-17T19:20:56.961Z,0.70
2019-03-17T19:25:02.463Z,0.57
2019-03-17T19:29:07.999Z,1.65
2019-03-17T19:33:12.925Z,0.75
2019-03-17T19:37:18.604Z,9.23
2019-03-17T19:41:23.312Z,0.90
2019-03-17T19:45:28.464Z,1.17
2019-03-17T19:49:34.138Z,1.00
2019-03-17T19:53:39.123Z,1.00
2019-03-17T20:02:54.948Z,1.40
2019-03-17T20:06:59.982Z,1.10
2019-03-17T20:11:05.525Z,1.00
2019-03-17T20:15:10.216Z,0.70
2019-03-17T20:19:15.551Z,0.80
2019-03-17T20:23:21.658Z,1.32
2019-03-17T20:27:27.286Z,0.98
2019-03-17T20:31:32.054Z,1.10
2019-03-17T20:35:38.665Z,1.12
2019-03-17T20:39:43.767Z,1.30
2019-03-17T20:43:48.481Z,1.20
2019-03-17T20:47:53.443Z,1.10
2019-03-17T20:52:01.122Z,1.10
2019-03-17T20:56:06.073Z,1.00
2019-03-17T21:00:13.360Z,1.02
2019-03-17T21:04:18.497Z,1.22
2019-03-17T21:08:24.909Z,1.10
2019-03-17T21:12:36.646Z,1.27
2019-03-17T21:16:41.968Z,3.92
2019-03-17T21:20:46.838Z,0.95
2019-03-17T21:24:52.191Z,1.07
2019-03-17T21:28:57.247Z,1.57
2019-03-17T21:33:02.325Z,1.35
2019-03-17T21:37:07.476Z,1.20
2019-03-17T21:41:13.534Z,1.30
2019-03-17T21:45:20.778Z,1.10
2019-03-17T21:49:25.525Z,1.50
2019-03-17T21:53:30.380Z,1.40
2019-03-17T21:57:35.321Z,1.25
2019-03-17T22:01:40.392Z,1.75
2019-03-17T22:05:45.417Z,1.35
2019-03-17T22:09:50.296Z,1.50
2019-03-17T22:13:54.993Z,1.30
2019-03-17T22:17:59.728Z,1.50
2019-03-17T22:22:04.630Z,1.65
2019-03-17T22:26:10.264Z,1.40
2019-03-17T22:30:15.505Z,1.30
2019-03-17T22:34:20.512Z,1.50
2019-03-17T22:38:26.867Z,1.40
2019-03-17T22:42:32.826Z,1.20
2019-03-17T22:46:43.464Z,1.32
2019-03-17T22:50:52.110Z,1.30
2019-03-17T22:54:57.498Z,1.82
2019-03-17T22:59:04.446Z,1.52
2019-03-17T23:03:09.759Z,1.60
2019-03-17T23:07:18.390Z,1.30
2019-03-17T23:11:46.849Z,1.70
2019-03-17T23:16:01.861Z,1.47
2019-03-17T23:20:14.840Z,1.25
2019-03-17T23:24:41.307Z,1.52
2019-03-17T23:28:50.960Z,1.27
2019-03-17T23:33:03.085Z,1.52
2019-03-17T23:37:07.781Z,1.77
2019-03-17T23:41:13.962Z,1.60
2019-03-17T23:45:19.225Z,1.77
2019-03-17T23:49:24.781Z,1.57
2019-03-17T23:53:30.373Z,1.70
2019-03-17T23:57:35.793Z,1.95
